createdAt,value
2024-03-12T00:00:59.139Z,6.34
2024-03-12T00:01:59.215Z,6.27
2024-03-12T00:02:59.157Z,6.30
2024-03-12T00:03:59.446Z,6.23
2024-03-12T00:04:59.222Z,6.18
2024-03-12T00:05:59.262Z,6.28
2024-03-12T00:06:59.306Z,6.25
2024-03-12T00:07:59.328Z,6.27
2024-03-12T00:08:59.358Z,6.21
2024-03-12T00:09:59.476Z,6.21
2024-03-12T00:10:59.437Z,6.28
2024-03-12T00:11:59.481Z,6.17
2024-03-12T00:12:59.516Z,6.22
2024-03-12T00:13:59.521Z,6.18
2024-03-12T00:14:59.561Z,6.19
2024-03-12T00:15:59.677Z,6.20
2024-03-12T00:16:59.643Z,6.18
2024-03-12T00:17:59.694Z,6.19
2024-03-12T00:18:59.808Z,6.10
2024-03-12T00:19:59.725Z,6.15
2024-03-12T00:20:59.769Z,6.14
2024-03-12T00:21:59.854Z,6.18
2024-03-12T00:22:59.908Z,6.12
2024-03-12T00:24:00.300Z,6.02
2024-03-12T00:24:59.966Z,6.03
2024-03-12T00:25:59.945Z,6.01
2024-03-12T00:26:59.969Z,6.04
2024-03-12T00:28:00.192Z,6.07
2024-03-12T00:29:00.068Z,5.98
2024-03-12T00:30:00.154Z,6.11
2024-03-12T00:31:00.130Z,6.17
2024-03-12T00:32:00.178Z,6.01
2024-03-12T00:33:00.249Z,6.00
2024-03-12T00:34:00.463Z,6.01
2024-03-12T00:35:00.281Z,5.96
2024-03-12T00:36:00.324Z,5.98
2024-03-12T00:37:00.380Z,6.02
2024-03-12T00:38:00.406Z,5.97
2024-03-12T00:39:00.454Z,5.92
2024-03-12T00:40:00.509Z,6.01
2024-03-12T00:41:00.499Z,5.82
2024-03-12T00:42:00.535Z,5.86
2024-03-12T00:43:00.595Z,5.88
2024-03-12T00:44:00.633Z,5.85
2024-03-12T00:45:00.643Z,5.99
2024-03-12T00:46:00.674Z,5.81
2024-03-12T00:47:00.702Z,5.91
2024-03-12T00:48:00.827Z,5.85
2024-03-12T00:49:00.842Z,5.83
2024-03-12T00:50:00.818Z,5.95
2024-03-12T00:51:00.848Z,5.87
2024-03-12T00:52:00.916Z,5.84
2024-03-12T00:53:00.939Z,5.85
2024-03-12T00:54:00.965Z,5.76
2024-03-12T00:55:01.018Z,5.80
2024-03-12T00:56:01.041Z,5.75
2024-03-12T00:57:01.093Z,5.76
2024-03-12T00:58:01.152Z,5.70
2024-03-12T00:59:01.144Z,5.80
2024-03-12T01:00:01.216Z,5.78
2024-03-12T01:01:01.278Z,5.59
2024-03-12T01:02:01.325Z,5.73
2024-03-12T01:03:01.471Z,5.59
2024-03-12T01:04:01.448Z,5.50
2024-03-12T01:05:01.384Z,5.54
2024-03-12T01:06:01.400Z,5.65
2024-03-12T01:07:01.496Z,5.61
2024-03-12T01:08:01.645Z,5.61
2024-03-12T01:09:01.539Z,5.59
2024-03-12T01:10:01.722Z,5.67
2024-03-12T01:11:01.612Z,5.61
2024-03-12T01:12:01.649Z,5.51
2024-03-12T01:13:01.814Z,5.54
2024-03-12T01:14:01.691Z,5.55
2024-03-12T01:15:01.809Z,5.48
2024-03-12T01:16:01.768Z,5.54
2024-03-12T01:17:01.806Z,5.53
2024-03-12T01:18:01.865Z,5.47
2024-03-12T01:19:01.958Z,5.50
2024-03-12T01:20:01.954Z,5.51
2024-03-12T01:21:01.965Z,5.45
2024-03-12T01:22:02.051Z,5.42
2024-03-12T01:23:02.022Z,5.33
2024-03-12T01:24:02.059Z,5.44
2024-03-12T01:25:02.206Z,5.27
2024-03-12T01:26:02.131Z,5.46
2024-03-12T01:27:02.166Z,5.27
2024-03-12T01:28:02.392Z,5.37
2024-03-12T01:29:02.261Z,5.41
2024-03-12T01:30:02.330Z,5.38
2024-03-12T01:31:02.340Z,5.41
2024-03-12T01:32:02.501Z,5.41
2024-03-12T01:33:02.422Z,5.31
2024-03-12T01:34:02.541Z,5.40
2024-03-12T01:35:02.450Z,5.35
2024-03-12T01:36:02.478Z,5.37
2024-03-12T01:37:02.551Z,5.23
2024-03-12T01:38:02.552Z,5.30
2024-03-12T01:39:02.584Z,5.27
2024-03-12T01:40:02.733Z,5.25
2024-03-12T01:41:02.628Z,5.34
2024-03-12T01:42:02.704Z,5.25
2024-03-12T01:43:03.041Z,5.29
2024-03-12T01:44:02.754Z,5.16
2024-03-12T01:45:02.819Z,5.32
2024-03-12T01:46:02.885Z,5.18
2024-03-12T01:47:02.858Z,5.18
2024-03-12T01:48:02.943Z,5.21
2024-03-12T01:49:02.958Z,5.18
2024-03-12T01:50:02.945Z,5.24
2024-03-12T01:51:02.981Z,5.11
2024-03-12T01:52:03.144Z,5.17
2024-03-12T01:53:03.048Z,5.21
2024-03-12T01:54:03.085Z,5.10
2024-03-12T01:55:03.178Z,5.11
2024-03-12T01:56:03.185Z,5.09
2024-03-12T01:57:03.187Z,5.03
2024-03-12T01:58:03.489Z,5.06
2024-03-12T01:59:03.266Z,5.03
2024-03-12T02:00:03.272Z,5.06
2024-03-12T02:01:03.422Z,5.10
2024-03-12T02:02:03.358Z,5.04
2024-03-12T02:03:03.389Z,5.07
2024-03-12T02:04:03.554Z,5.06
2024-03-12T02:05:03.458Z,5.05
2024-03-12T02:06:03.476Z,4.93
2024-03-12T02:07:03.543Z,5.04
2024-03-12T02:08:03.518Z,5.00
2024-03-12T02:09:03.568Z,4.95
2024-03-12T02:10:03.698Z,4.98
2024-03-12T02:11:03.672Z,4.93
2024-03-12T02:12:03.664Z,4.94
2024-03-12T02:13:03.911Z,4.94
2024-03-12T02:14:03.743Z,4.94
2024-03-12T02:15:03.769Z,4.95
2024-03-12T02:16:03.829Z,4.89
2024-03-12T02:17:03.841Z,4.84
2024-03-12T02:18:04.009Z,4.88
2024-03-12T02:19:03.976Z,4.90
2024-03-12T02:20:03.986Z,4.88
2024-03-12T02:21:03.995Z,4.85
2024-03-12T02:22:04.073Z,4.80
2024-03-12T02:23:04.059Z,4.90
2024-03-12T02:24:04.094Z,4.81
2024-03-12T02:25:04.244Z,4.80
2024-03-12T02:26:04.173Z,4.83
2024-03-12T02:27:04.191Z,4.83
2024-03-12T02:28:04.641Z,4.84
2024-03-12T02:29:04.264Z,4.79
2024-03-12T02:30:04.360Z,4.79
2024-03-12T02:31:04.410Z,4.82
2024-03-12T02:32:04.396Z,4.78
2024-03-12T02:33:04.489Z,4.79
2024-03-12T02:34:04.459Z,4.76
2024-03-12T02:35:04.485Z,4.69
2024-03-12T02:36:04.518Z,4.66
2024-03-12T02:37:04.708Z,4.71
2024-03-12T02:38:04.590Z,4.69
2024-03-12T02:39:04.617Z,4.76
2024-03-12T02:40:04.760Z,4.65
2024-03-12T02:41:04.690Z,4.71
2024-03-12T02:42:04.736Z,4.75
2024-03-12T02:43:04.906Z,4.64
2024-03-12T02:44:04.844Z,4.69
2024-03-12T02:45:04.846Z,4.66
2024-03-12T02:46:05.115Z,4.66
2024-03-12T02:47:04.937Z,4.64
2024-03-12T02:48:04.999Z,4.67
2024-03-12T02:49:05.081Z,4.62
2024-03-12T02:50:05.019Z,4.53
2024-03-12T02:51:05.101Z,4.59
2024-03-12T02:52:05.168Z,4.58
2024-03-12T02:53:05.110Z,4.59
2024-03-12T02:54:05.152Z,4.64
2024-03-12T02:55:05.235Z,4.60
2024-03-12T02:56:05.228Z,4.55
2024-03-12T02:57:05.253Z,4.53
2024-03-12T02:58:05.369Z,4.56
2024-03-12T02:59:05.333Z,4.57
2024-03-12T03:00:05.336Z,4.54
2024-03-12T03:01:05.427Z,4.57
2024-03-12T03:02:05.418Z,4.53
2024-03-12T03:03:05.474Z,4.56
2024-03-12T03:04:05.608Z,4.43
2024-03-12T03:05:05.529Z,4.54
2024-03-12T03:06:05.539Z,4.38
2024-03-12T03:07:05.698Z,4.46
2024-03-12T03:08:05.625Z,4.47
2024-03-12T03:09:05.658Z,4.43
2024-03-12T03:10:05.967Z,4.44
2024-03-12T03:11:05.740Z,4.43
2024-03-12T03:12:05.785Z,4.41
2024-03-12T03:13:05.828Z,4.46
2024-03-12T03:14:05.859Z,4.39
2024-03-12T03:15:05.864Z,4.41
2024-03-12T03:16:05.961Z,4.42
2024-03-12T03:17:05.910Z,4.37
2024-03-12T03:18:05.996Z,4.33
2024-03-12T03:19:06.055Z,4.36
2024-03-12T03:20:06.023Z,4.36
2024-03-12T03:21:06.068Z,4.37
2024-03-12T03:22:06.162Z,4.34
2024-03-12T03:23:06.123Z,4.32
2024-03-12T03:24:06.174Z,4.33
2024-03-12T03:25:06.209Z,4.22
2024-03-12T03:26:06.213Z,4.34
2024-03-12T03:27:06.395Z,4.36
2024-03-12T03:28:06.338Z,4.27
2024-03-12T03:29:06.369Z,4.24
2024-03-12T03:30:06.361Z,4.26
2024-03-12T03:31:06.438Z,4.22
2024-03-12T03:32:06.442Z,4.24
2024-03-12T03:33:06.492Z,4.26
2024-03-12T03:34:06.624Z,4.24
2024-03-12T03:35:06.535Z,4.19
2024-03-12T03:36:06.561Z,4.21
2024-03-12T03:37:06.676Z,4.09
2024-03-12T03:38:06.626Z,4.21
2024-03-12T03:39:06.653Z,4.18
2024-03-12T03:40:06.722Z,4.22
2024-03-12T03:41:06.716Z,4.13
2024-03-12T03:42:06.737Z,4.20
2024-03-12T03:43:06.902Z,4.17
2024-03-12T03:44:06.819Z,4.18
2024-03-12T03:45:06.845Z,4.16
2024-03-12T03:46:06.962Z,4.18
2024-03-12T03:47:06.982Z,4.16
2024-03-12T03:48:06.962Z,4.11
2024-03-12T03:49:07.044Z,4.07
2024-03-12T03:50:06.984Z,4.10
2024-03-12T03:51:06.990Z,4.11
2024-03-12T03:52:07.085Z,4.02
2024-03-12T03:53:07.069Z,4.08
2024-03-12T03:54:07.096Z,4.11
2024-03-12T03:55:07.278Z,4.06
2024-03-12T03:56:07.165Z,4.04
2024-03-12T03:57:07.258Z,3.97
2024-03-12T03:58:07.285Z,4.07
2024-03-12T03:59:07.295Z,3.99
2024-03-12T04:00:07.318Z,4.03
2024-03-12T04:01:07.392Z,3.96
2024-03-12T04:02:07.361Z,3.99
2024-03-12T04:03:07.413Z,3.95
2024-03-12T04:04:07.524Z,4.01
2024-03-12T04:05:07.481Z,3.97
2024-03-12T04:06:07.538Z,4.05
2024-03-12T04:07:07.663Z,3.97
2024-03-12T04:08:07.708Z,3.88
2024-03-12T04:09:07.642Z,3.94
2024-03-12T04:10:07.708Z,3.89
2024-03-12T04:11:07.681Z,3.98
2024-03-12T04:12:07.725Z,3.99
2024-03-12T04:13:07.854Z,3.94
2024-03-12T04:14:07.788Z,3.92
2024-03-12T04:15:07.825Z,3.88
2024-03-12T04:16:07.943Z,3.92
2024-03-12T04:17:07.932Z,3.89
2024-03-12T04:18:07.987Z,3.87
2024-03-12T04:19:08.144Z,3.91
2024-03-12T04:20:07.972Z,3.82
2024-03-12T04:21:08.013Z,3.89
2024-03-12T04:22:08.265Z,3.89
2024-03-12T04:23:08.072Z,3.77
2024-03-12T04:24:08.100Z,3.83
2024-03-12T04:25:08.478Z,3.82
2024-03-12T04:26:08.192Z,3.84
2024-03-12T04:27:08.197Z,3.79
2024-03-12T04:28:08.329Z,3.76
2024-03-12T04:29:08.321Z,3.84
2024-03-12T04:30:08.309Z,3.78
2024-03-12T04:31:08.493Z,3.82
2024-03-12T04:32:08.381Z,3.77
2024-03-12T04:33:08.451Z,3.78
2024-03-12T04:34:08.489Z,3.83
2024-03-12T04:35:08.465Z,3.76
2024-03-12T04:36:08.490Z,3.75
2024-03-12T04:37:08.594Z,3.77
2024-03-12T04:38:08.582Z,3.77
2024-03-12T04:39:08.624Z,3.75
2024-03-12T04:40:15.980Z,0.50
2024-03-12T04:41:15.905Z,0.50
2024-03-12T04:42:15.901Z,0.50
2024-03-12T04:43:16.006Z,0.50
2024-03-12T04:44:15.899Z,0.50
2024-03-12T04:45:15.975Z,0.50
2024-03-12T04:46:15.935Z,0.51
2024-03-12T04:47:15.893Z,0.50
2024-03-12T04:48:15.953Z,0.50
2024-03-12T04:49:15.994Z,0.50
2024-03-12T04:50:16.142Z,0.50
2024-03-12T04:51:15.919Z,0.51
2024-03-12T04:52:15.903Z,0.51
2024-03-12T04:53:15.935Z,0.51
2024-03-12T04:54:15.925Z,0.51
2024-03-12T04:55:16.033Z,0.52
2024-03-12T04:56:15.920Z,0.52
2024-03-12T04:57:15.915Z,0.52
2024-03-12T04:58:15.946Z,0.52
2024-03-12T04:59:15.928Z,0.52
2024-03-12T05:00:16.785Z,0.52
2024-03-12T05:01:15.986Z,0.52
2024-03-12T05:02:15.919Z,0.52
2024-03-12T05:03:15.932Z,0.50
2024-03-12T05:04:21.527Z,0.52
2024-03-12T05:05:16.938Z,0.52
2024-03-12T05:06:15.974Z,0.52
2024-03-12T05:07:15.977Z,0.52
2024-03-12T05:08:15.961Z,0.52
2024-03-12T05:09:15.960Z,0.52
2024-03-12T05:10:16.024Z,0.51
2024-03-12T05:11:15.982Z,0.52
2024-03-12T05:12:15.957Z,0.52
2024-03-12T05:13:16.158Z,0.52
2024-03-12T05:14:15.981Z,0.51
2024-03-12T05:15:15.951Z,0.52
2024-03-12T05:16:15.987Z,0.52
2024-03-12T05:17:15.953Z,0.52
2024-03-12T05:18:16.076Z,0.52
2024-03-12T05:19:15.977Z,0.51
2024-03-12T05:20:16.031Z,0.52
2024-03-12T05:21:15.973Z,0.52
2024-03-12T05:22:16.065Z,0.51
2024-03-12T05:23:15.959Z,0.52
2024-03-12T05:24:15.986Z,0.51
2024-03-12T05:25:16.037Z,0.51
2024-03-12T05:26:15.965Z,0.52
2024-03-12T05:27:15.959Z,0.52
2024-03-12T05:28:16.006Z,0.51
2024-03-12T05:29:15.964Z,0.52
2024-03-12T05:30:16.296Z,0.51
2024-03-12T05:31:16.034Z,0.52
2024-03-12T05:32:15.978Z,0.51
2024-03-12T05:33:16.484Z,0.51
2024-03-12T05:34:16.051Z,0.51
2024-03-12T05:35:16.054Z,0.51
2024-03-12T05:36:16.076Z,0.51
2024-03-12T05:37:16.123Z,0.51
2024-03-12T05:38:16.097Z,0.52
2024-03-12T05:39:16.124Z,0.51
2024-03-12T05:40:16.253Z,0.51
2024-03-12T05:41:16.385Z,0.51
2024-03-12T05:42:16.209Z,0.51
2024-03-12T05:43:16.396Z,0.51
2024-03-12T05:44:16.246Z,0.51
2024-03-12T05:45:16.244Z,0.51
2024-03-12T05:46:16.556Z,0.51
2024-03-12T05:47:16.289Z,0.51
2024-03-12T05:48:16.312Z,0.51
2024-03-12T05:49:16.452Z,0.51
2024-03-12T05:50:16.363Z,0.51
2024-03-12T05:51:16.374Z,0.51
2024-03-12T05:52:16.497Z,0.51
2024-03-12T05:53:16.436Z,0.50
2024-03-12T05:54:16.442Z,0.51
2024-03-12T05:55:16.710Z,0.51
2024-03-12T05:56:18.736Z,0.51
2024-03-12T05:57:16.490Z,0.51
2024-03-12T05:58:16.544Z,0.52
2024-03-12T05:59:16.484Z,0.51
2024-03-12T06:00:16.477Z,0.52
2024-03-12T06:01:16.671Z,0.51
2024-03-12T06:02:16.524Z,0.52
2024-03-12T06:03:16.495Z,0.51
2024-03-12T06:04:16.640Z,0.51
2024-03-12T06:05:16.490Z,0.52
2024-03-12T06:06:16.479Z,0.52
2024-03-12T06:07:19.010Z,0.52
2024-03-12T06:08:16.480Z,0.52
2024-03-12T06:09:16.514Z,0.52
2024-03-12T06:10:16.621Z,0.52
2024-03-12T06:11:16.525Z,0.52
2024-03-12T06:12:16.657Z,0.52
2024-03-12T06:13:16.536Z,0.52
2024-03-12T06:14:16.538Z,0.51
2024-03-12T06:15:16.499Z,0.51
2024-03-12T06:16:16.550Z,0.52
2024-03-12T06:17:16.522Z,0.51
2024-03-12T06:18:16.492Z,0.51
2024-03-12T06:19:16.624Z,0.51
2024-03-12T06:20:16.479Z,0.52
2024-03-12T06:21:16.516Z,0.51
2024-03-12T06:22:16.530Z,0.51
2024-03-12T06:23:16.495Z,0.52
2024-03-12T06:24:16.515Z,0.52
2024-03-12T06:25:16.621Z,0.52
2024-03-12T06:26:16.493Z,0.51
2024-03-12T06:27:16.495Z,0.52
2024-03-12T06:28:16.569Z,0.52
2024-03-12T06:29:16.561Z,0.52
2024-03-12T06:30:16.513Z,0.52
2024-03-12T06:31:16.606Z,0.51
2024-03-12T06:32:16.523Z,0.52
2024-03-12T06:33:16.553Z,0.52
2024-03-12T06:34:16.563Z,0.53
2024-03-12T06:35:16.521Z,0.48
2024-03-12T06:36:16.505Z,0.40
2024-03-12T06:37:16.612Z,0.37
2024-03-12T06:38:16.505Z,0.36
2024-03-12T06:39:16.541Z,0.38
2024-03-12T06:40:16.564Z,0.44
2024-03-12T06:41:16.534Z,0.49
2024-03-12T06:42:16.681Z,0.51
2024-03-12T06:43:16.556Z,0.54
2024-03-12T06:44:17.459Z,0.58
2024-03-12T06:45:16.582Z,0.63
2024-03-12T06:46:16.704Z,0.68
2024-03-12T06:47:16.636Z,0.74
2024-03-12T06:48:16.706Z,0.81
2024-03-12T06:49:43.578Z,0.89
2024-03-12T06:50:16.662Z,0.90
2024-03-12T06:51:16.670Z,0.92
2024-03-12T06:52:16.736Z,0.97
2024-03-12T06:53:38.729Z,1.08
2024-03-12T06:54:16.673Z,0.90
2024-03-12T06:55:17.402Z,0.95
2024-03-12T06:56:16.680Z,1.05
2024-03-12T06:57:16.671Z,1.25
2024-03-12T06:58:16.697Z,1.60
2024-03-12T06:59:16.667Z,1.81
2024-03-12T07:00:16.679Z,1.94
2024-03-12T07:01:16.980Z,2.02
2024-03-12T07:02:16.740Z,2.14
2024-03-12T07:03:16.699Z,2.17
2024-03-12T07:04:16.697Z,2.29
2024-03-12T07:05:16.688Z,2.41
2024-03-12T07:06:16.692Z,2.48
2024-03-12T07:07:16.706Z,2.53
2024-03-12T07:08:16.678Z,2.70
2024-03-12T07:09:16.693Z,2.79
2024-03-12T07:10:16.738Z,2.98
2024-03-12T07:11:16.887Z,3.21
2024-03-12T07:12:16.677Z,3.42
2024-03-12T07:13:16.782Z,3.52
2024-03-12T07:14:16.688Z,3.60
2024-03-12T07:15:16.700Z,3.80
2024-03-12T07:16:16.743Z,3.97
2024-03-12T07:17:16.693Z,4.04
2024-03-12T07:18:16.749Z,4.26
2024-03-12T07:19:16.826Z,4.27
2024-03-12T07:20:16.923Z,4.46
2024-03-12T07:21:16.698Z,4.51
2024-03-12T07:22:16.693Z,4.62
2024-03-12T07:23:16.689Z,4.70
2024-03-12T07:24:16.721Z,4.73
2024-03-12T07:25:16.747Z,4.90
2024-03-12T07:26:16.708Z,5.10
2024-03-12T07:27:16.728Z,5.02
2024-03-12T07:28:17.445Z,5.16
2024-03-12T07:29:16.743Z,5.29
2024-03-12T07:30:16.776Z,5.35
2024-03-12T07:31:16.938Z,5.59
2024-03-12T07:32:16.899Z,5.74
2024-03-12T07:33:17.007Z,5.76
2024-03-12T07:34:18.705Z,5.86
2024-03-12T07:35:17.053Z,5.86
2024-03-12T07:36:17.088Z,6.08
2024-03-12T07:37:17.186Z,6.37
2024-03-12T07:38:17.187Z,6.59
2024-03-12T07:39:17.304Z,6.61
2024-03-12T07:40:17.902Z,6.80
2024-03-12T07:41:17.329Z,7.54
2024-03-12T07:42:17.360Z,7.54
2024-03-12T07:43:17.518Z,7.89
2024-03-12T07:44:17.524Z,8.02
2024-03-12T07:45:17.504Z,8.07
2024-03-12T07:46:17.599Z,8.28
2024-03-12T07:47:17.593Z,8.04
2024-03-12T07:48:17.702Z,8.40
2024-03-12T07:49:17.773Z,8.33
2024-03-12T07:50:17.739Z,8.45
2024-03-12T07:51:17.756Z,8.46
2024-03-12T07:52:17.942Z,8.46
2024-03-12T07:53:17.866Z,8.20
2024-03-12T07:54:17.927Z,8.51
2024-03-12T07:55:18.021Z,8.31
2024-03-12T07:56:18.020Z,8.22
2024-03-12T07:57:20.053Z,8.23
2024-03-12T07:58:18.120Z,8.30
2024-03-12T07:59:18.144Z,8.07
2024-03-12T08:00:18.498Z,8.17
2024-03-12T08:01:18.148Z,8.01
2024-03-12T08:02:18.094Z,7.89
2024-03-12T08:03:18.112Z,7.90
2024-03-12T08:04:18.191Z,7.68
2024-03-12T08:05:18.149Z,7.72
2024-03-12T08:06:18.101Z,7.51
2024-03-12T08:07:18.151Z,7.47
2024-03-12T08:08:18.106Z,7.41
2024-03-12T08:09:18.171Z,7.20
2024-03-12T08:10:18.205Z,7.24
2024-03-12T08:11:18.124Z,7.16
2024-03-12T08:12:18.161Z,7.02
2024-03-12T08:13:18.149Z,7.05
2024-03-12T08:14:18.196Z,7.03
2024-03-12T08:15:18.120Z,6.76
2024-03-12T08:16:18.149Z,6.73
2024-03-12T08:17:18.133Z,6.62
2024-03-12T08:18:21.636Z,6.56
2024-03-12T08:19:18.335Z,6.57
2024-03-12T08:20:18.153Z,6.58
2024-03-12T08:21:18.112Z,6.52
2024-03-12T08:22:18.121Z,6.58
2024-03-12T08:23:18.107Z,6.42
2024-03-12T08:24:18.110Z,6.36
2024-03-12T08:25:21.443Z,6.49
2024-03-12T08:26:18.118Z,6.49
2024-03-12T08:27:18.109Z,6.53
2024-03-12T08:28:18.191Z,6.65
2024-03-12T08:29:18.135Z,6.91
2024-03-12T08:30:18.158Z,7.35
2024-03-12T08:31:28.247Z,7.86
2024-03-12T08:32:19.199Z,7.89
2024-03-12T08:33:18.169Z,8.00
2024-03-12T08:34:18.241Z,8.15
2024-03-12T08:35:18.142Z,8.45
2024-03-12T08:36:18.140Z,8.71
2024-03-12T08:37:18.190Z,8.82
2024-03-12T08:38:18.138Z,8.82
2024-03-12T08:39:18.261Z,8.49
2024-03-12T08:40:18.366Z,8.38
2024-03-12T08:41:18.149Z,8.24
2024-03-12T08:42:18.149Z,8.40
2024-03-12T08:43:18.170Z,8.32
2024-03-12T08:44:18.136Z,8.16
2024-03-12T08:45:21.281Z,8.08
2024-03-12T08:46:18.213Z,8.08
2024-03-12T08:47:18.177Z,7.85
2024-03-12T08:48:18.184Z,7.83
2024-03-12T08:49:18.301Z,7.45
2024-03-12T08:50:18.334Z,7.43
2024-03-12T08:51:18.184Z,7.73
2024-03-12T08:52:18.275Z,7.50
2024-03-12T08:53:18.204Z,7.42
2024-03-12T08:54:18.202Z,7.39
2024-03-12T08:55:18.302Z,7.57
2024-03-12T08:56:18.253Z,7.33
2024-03-12T08:57:18.300Z,7.35
2024-03-12T08:58:18.505Z,7.64
2024-03-12T08:59:18.448Z,7.79
2024-03-12T09:00:18.454Z,7.96
2024-03-12T09:01:18.581Z,8.05
2024-03-12T09:02:18.556Z,8.19
2024-03-12T09:03:18.689Z,8.30
2024-03-12T09:04:18.652Z,8.57
2024-03-12T09:05:18.617Z,8.63
2024-03-12T09:06:18.679Z,8.82
2024-03-12T09:07:18.699Z,8.80
2024-03-12T09:08:18.777Z,8.87
2024-03-12T09:09:18.712Z,9.18
2024-03-12T09:10:18.806Z,8.97
2024-03-12T09:11:18.793Z,9.24
2024-03-12T09:12:18.776Z,9.33
2024-03-12T09:13:18.837Z,9.32
2024-03-12T09:14:18.811Z,9.54
2024-03-12T09:15:18.825Z,9.71
2024-03-12T09:16:19.015Z,9.61
2024-03-12T09:17:18.884Z,9.66
2024-03-12T09:18:19.597Z,10.06
2024-03-12T09:19:19.018Z,10.26
2024-03-12T09:20:18.913Z,10.16
2024-03-12T09:21:18.918Z,10.34
2024-03-12T09:22:18.958Z,10.68
2024-03-12T09:23:18.951Z,10.69
2024-03-12T09:24:19.008Z,10.91
2024-03-12T09:25:19.751Z,11.12
2024-03-12T09:26:18.985Z,11.41
2024-03-12T09:27:19.013Z,12.00
2024-03-12T09:28:19.141Z,12.13
2024-03-12T09:29:19.045Z,12.40
2024-03-12T09:30:19.072Z,12.52
2024-03-12T09:31:19.155Z,12.90
2024-03-12T09:32:19.087Z,12.88
2024-03-12T09:33:19.070Z,13.00
2024-03-12T09:34:19.189Z,13.10
2024-03-12T09:35:19.085Z,12.95
2024-03-12T09:36:19.080Z,13.13
2024-03-12T09:37:19.238Z,13.17
2024-03-12T09:38:19.096Z,11.58
2024-03-12T09:39:19.201Z,6.59
2024-03-12T09:40:19.266Z,4.34
2024-03-12T09:41:19.260Z,3.16
2024-03-12T09:42:19.288Z,2.57
2024-03-12T09:43:19.333Z,2.19
2024-03-12T09:44:19.362Z,2.04
2024-03-12T09:45:19.327Z,2.02
2024-03-12T09:46:19.358Z,1.97
2024-03-12T09:47:19.361Z,1.95
2024-03-12T09:48:19.388Z,1.93
2024-03-12T09:49:19.527Z,2.07
2024-03-12T09:50:19.475Z,2.09
2024-03-12T09:51:19.523Z,1.96
2024-03-12T09:52:19.595Z,1.63
2024-03-12T09:53:19.602Z,1.38
2024-03-12T09:54:19.652Z,1.23
2024-03-12T09:55:19.692Z,1.16
2024-03-12T09:56:19.682Z,1.21
2024-03-12T09:57:19.721Z,1.23
2024-03-12T09:58:19.833Z,1.34
2024-03-12T09:59:19.788Z,1.43
2024-03-12T10:00:19.860Z,1.55
2024-03-12T10:01:19.949Z,1.60
2024-03-12T10:02:20.018Z,1.67
2024-03-12T10:03:20.040Z,1.75
2024-03-12T10:04:20.156Z,1.85
2024-03-12T10:05:20.169Z,1.79
2024-03-12T10:06:20.179Z,1.58
2024-03-12T10:07:20.271Z,1.35
2024-03-12T10:08:20.336Z,1.15
2024-03-12T10:09:20.388Z,1.18
2024-03-12T10:10:20.529Z,1.25
2024-03-12T10:11:20.592Z,1.33
2024-03-12T10:12:20.542Z,1.50
2024-03-12T10:13:20.635Z,1.59
2024-03-12T10:14:20.628Z,1.56
2024-03-12T10:15:20.744Z,1.60
2024-03-12T10:16:20.780Z,1.68
2024-03-12T10:17:20.759Z,1.75
2024-03-12T10:18:20.776Z,1.79
2024-03-12T10:19:20.872Z,1.87
2024-03-12T10:20:20.890Z,1.88
2024-03-12T10:21:20.870Z,1.91
2024-03-12T10:22:20.947Z,1.89
2024-03-12T10:23:20.911Z,1.99
2024-03-12T10:24:20.943Z,2.03
2024-03-12T10:25:21.002Z,2.04
2024-03-12T10:26:20.985Z,2.07
2024-03-12T10:27:21.010Z,2.06
2024-03-12T10:28:21.048Z,2.12
2024-03-12T10:29:21.077Z,1.63
2024-03-12T10:30:21.127Z,1.20
2024-03-12T10:31:21.316Z,0.92
2024-03-12T10:32:21.193Z,0.74
2024-03-12T10:33:21.223Z,0.62
2024-03-12T10:34:21.739Z,0.58
2024-03-12T10:35:21.311Z,0.54
2024-03-12T10:36:21.272Z,0.53
2024-03-12T10:37:21.423Z,0.50
2024-03-12T10:38:21.309Z,0.51
2024-03-12T10:39:21.315Z,0.50
2024-03-12T10:40:21.754Z,0.51
2024-03-12T10:41:22.765Z,0.51
2024-03-12T10:42:21.345Z,0.51
2024-03-12T10:43:21.398Z,0.50
2024-03-12T10:44:21.409Z,0.51
2024-03-12T10:45:21.481Z,0.51
2024-03-12T10:46:21.519Z,0.52
2024-03-12T10:47:21.562Z,0.52
2024-03-12T10:48:21.686Z,0.51
2024-03-12T10:49:22.195Z,0.51
2024-03-12T10:50:21.682Z,0.52
2024-03-12T10:51:21.694Z,0.52
2024-03-12T10:52:21.852Z,0.51
2024-03-12T10:53:21.797Z,0.51
2024-03-12T10:54:21.822Z,0.50
2024-03-12T10:55:21.874Z,0.52
2024-03-12T10:56:21.907Z,0.50
2024-03-12T10:57:21.868Z,0.50
2024-03-12T10:58:21.931Z,0.50
2024-03-12T10:59:21.904Z,0.50
2024-03-12T11:00:21.904Z,0.50
2024-03-12T11:01:22.278Z,0.51
2024-03-12T11:02:21.918Z,0.51
2024-03-12T11:03:21.922Z,0.52
2024-03-12T11:04:21.975Z,0.51
2024-03-12T11:05:21.951Z,0.51
2024-03-12T11:06:21.957Z,0.50
2024-03-12T11:07:21.978Z,0.50
2024-03-12T11:08:21.960Z,0.52
2024-03-12T11:09:21.955Z,0.51
2024-03-12T11:10:22.102Z,0.52
2024-03-12T11:11:22.061Z,0.52
2024-03-12T11:12:22.008Z,0.50
2024-03-12T11:13:22.133Z,0.52
2024-03-12T11:14:22.022Z,0.51
2024-03-12T11:15:22.031Z,0.51
2024-03-12T11:16:22.263Z,0.50
2024-03-12T11:17:22.067Z,0.51
2024-03-12T11:18:22.074Z,0.50
2024-03-12T11:19:22.404Z,0.51
2024-03-12T11:20:24.777Z,0.50
2024-03-12T11:21:22.056Z,0.50
2024-03-12T11:22:22.113Z,0.49
2024-03-12T11:23:22.078Z,0.48
2024-03-12T11:24:22.095Z,0.49
2024-03-12T11:25:22.131Z,0.48
2024-03-12T11:26:35.461Z,0.51
2024-03-12T11:27:23.092Z,0.51
2024-03-12T11:28:22.561Z,0.51
2024-03-12T11:29:22.071Z,0.51
2024-03-12T11:30:22.089Z,0.52
2024-03-12T11:31:22.099Z,0.52
2024-03-12T11:32:22.077Z,0.51
2024-03-12T11:33:22.092Z,0.53
2024-03-12T11:34:22.086Z,0.51
2024-03-12T11:35:22.116Z,0.52
2024-03-12T11:36:22.077Z,0.51
2024-03-12T11:37:22.117Z,0.51
2024-03-12T11:38:22.095Z,0.51
2024-03-12T11:39:22.082Z,0.52
2024-03-12T11:40:22.178Z,0.52
2024-03-12T11:41:22.087Z,0.51
2024-03-12T11:42:22.084Z,0.51
2024-03-12T11:43:22.082Z,0.51
2024-03-12T11:44:22.098Z,0.50
2024-03-12T11:45:22.094Z,0.50
2024-03-12T11:46:22.395Z,0.50
2024-03-12T11:47:22.101Z,0.52
2024-03-12T11:48:22.093Z,0.51
2024-03-12T11:49:22.098Z,0.52
2024-03-12T11:50:22.106Z,0.52
2024-03-12T11:51:22.100Z,0.52
2024-03-12T11:52:22.125Z,0.51
2024-03-12T11:53:22.122Z,0.52
2024-03-12T11:54:22.121Z,0.52
2024-03-12T11:55:22.121Z,0.52
2024-03-12T11:56:22.099Z,0.55
2024-03-12T11:57:22.125Z,0.53
2024-03-12T11:58:22.116Z,0.50
2024-03-12T11:59:22.126Z,0.51
2024-03-12T12:00:22.144Z,0.52
2024-03-12T12:01:22.147Z,0.52
2024-03-12T12:02:22.154Z,0.51
2024-03-12T12:03:22.126Z,0.51
2024-03-12T12:04:22.138Z,0.51
2024-03-12T12:05:22.132Z,0.50
2024-03-12T12:06:22.117Z,0.52
2024-03-12T12:07:22.176Z,0.52
2024-03-12T12:08:22.125Z,0.51
2024-03-12T12:09:22.138Z,0.52
2024-03-12T12:10:22.164Z,0.53
2024-03-12T12:11:22.200Z,0.53
2024-03-12T12:12:22.149Z,0.53
2024-03-12T12:13:22.143Z,0.51
2024-03-12T12:14:22.136Z,0.53
2024-03-12T12:15:22.139Z,0.53
2024-03-12T12:16:22.225Z,0.54
2024-03-12T12:17:22.130Z,0.54
2024-03-12T12:18:22.135Z,0.53
2024-03-12T12:19:25.731Z,0.53
2024-03-12T12:20:23.185Z,0.53
2024-03-12T12:21:22.209Z,0.53
2024-03-12T12:22:22.186Z,0.53
2024-03-12T12:23:22.166Z,0.53
2024-03-12T12:24:22.193Z,0.53
2024-03-12T12:25:22.344Z,0.53
2024-03-12T12:26:22.157Z,0.52
2024-03-12T12:27:22.149Z,0.51
2024-03-12T12:28:22.199Z,0.50
2024-03-12T12:29:22.161Z,0.51
2024-03-12T12:30:22.365Z,0.51
2024-03-12T12:31:22.159Z,0.50
2024-03-12T12:32:22.150Z,0.51
2024-03-12T12:33:22.171Z,0.51
2024-03-12T12:34:22.191Z,0.51
2024-03-12T12:35:22.355Z,0.53
2024-03-12T12:36:22.182Z,0.51
2024-03-12T12:37:22.599Z,0.52
2024-03-12T12:38:22.170Z,0.50
2024-03-12T12:39:22.187Z,0.50
2024-03-12T12:40:22.764Z,0.51
2024-03-12T12:41:22.166Z,0.51
2024-03-12T12:42:22.169Z,0.51
2024-03-12T12:43:22.199Z,0.50
2024-03-12T12:44:22.597Z,0.51
2024-03-12T12:45:22.317Z,0.50
2024-03-12T12:46:22.230Z,0.51
2024-03-12T12:47:22.188Z,0.54
2024-03-12T12:48:22.189Z,0.54
2024-03-12T12:49:22.814Z,0.56
2024-03-12T12:50:22.218Z,0.54
2024-03-12T12:51:22.205Z,0.53
2024-03-12T12:52:22.236Z,0.56
2024-03-12T12:53:22.207Z,0.54
2024-03-12T12:54:22.229Z,0.54
2024-03-12T12:55:22.266Z,0.55
2024-03-12T12:56:22.214Z,0.54
2024-03-12T12:57:22.194Z,0.56
2024-03-12T12:58:22.212Z,0.55
2024-03-12T12:59:22.205Z,0.56
2024-03-12T13:00:22.273Z,0.55
2024-03-12T13:01:22.318Z,0.57
2024-03-12T13:02:22.341Z,0.56
2024-03-12T13:03:22.219Z,0.55
2024-03-12T13:04:22.235Z,0.55
2024-03-12T13:05:22.242Z,0.57
2024-03-12T13:06:22.243Z,0.57
2024-03-12T13:07:22.334Z,0.58
2024-03-12T13:08:22.213Z,0.57
2024-03-12T13:09:22.233Z,0.59
2024-03-12T13:10:22.281Z,0.58
2024-03-12T13:11:22.225Z,0.59
2024-03-12T13:12:22.244Z,0.60
2024-03-12T13:13:22.286Z,0.58
2024-03-12T13:14:22.251Z,0.60
2024-03-12T13:15:22.286Z,0.62
2024-03-12T13:16:22.311Z,0.60
2024-03-12T13:17:22.297Z,0.58
2024-03-12T13:18:22.326Z,0.55